createdAt,value
2017-08-11T00:01:07.356Z,6.77
2017-08-11T00:03:41.439Z,6.60
2017-08-11T00:06:15.686Z,6.90
2017-08-11T00:08:49.838Z,7.43
2017-08-11T00:11:23.911Z,7.17
2017-08-11T00:13:57.960Z,8.40
2017-08-11T00:16:32.151Z,7.20
2017-08-11T00:19:06.349Z,7.17
2017-08-11T00:21:40.540Z,7.87
2017-08-11T00:24:14.808Z,8.27
2017-08-11T00:26:49.183Z,7.10
2017-08-11T00:29:23.419Z,7.10
2017-08-11T00:31:57.602Z,7.50
2017-08-11T00:34:31.855Z,7.33
2017-08-11T00:37:05.929Z,7.70
2017-08-11T00:39:40.112Z,8.40
2017-08-11T00:42:14.252Z,7.27
2017-08-11T00:57:35.064Z,7.80
2017-08-11T01:00:09.134Z,6.57
2017-08-11T01:02:43.368Z,7.90
2017-08-11T01:05:17.502Z,7.40
2017-08-11T01:07:51.684Z,7.70
2017-08-11T01:10:25.787Z,7.67
2017-08-11T01:13:00.078Z,7.30
2017-08-11T01:15:34.323Z,7.13
2017-08-11T01:18:08.630Z,7.40
2017-08-11T01:20:42.981Z,8.30
2017-08-11T01:23:17.167Z,8.50
2017-08-11T01:25:51.318Z,8.07
2017-08-11T01:28:25.439Z,8.70
2017-08-11T01:30:59.607Z,8.40
2017-08-11T01:33:33.803Z,7.20
2017-08-11T01:36:08.122Z,8.03
2017-08-11T01:38:42.323Z,6.97
2017-08-11T01:41:16.523Z,7.40
2017-08-11T01:43:50.544Z,8.23
2017-08-11T01:46:24.776Z,8.30
2017-08-11T01:48:59.051Z,7.90
2017-08-11T01:51:33.207Z,7.80
2017-08-11T01:54:07.355Z,8.30
2017-08-11T01:56:41.647Z,6.90
2017-08-11T01:59:15.892Z,8.03
2017-08-11T02:01:50.095Z,8.13
2017-08-11T02:04:24.224Z,9.00
2017-08-11T02:06:58.417Z,8.00
2017-08-11T02:09:32.646Z,7.97
2017-08-11T02:12:06.968Z,8.20
2017-08-11T02:14:41.170Z,7.90
2017-08-11T02:17:15.472Z,7.30
2017-08-11T02:19:49.707Z,7.70
2017-08-11T02:22:24.007Z,8.67
2017-08-11T02:24:58.341Z,7.90
2017-08-11T02:27:32.559Z,7.80
2017-08-11T02:30:06.802Z,8.37
2017-08-11T02:32:41.004Z,7.43
2017-08-11T02:35:15.336Z,7.40
2017-08-11T02:37:49.531Z,7.60
2017-08-11T02:40:23.587Z,7.33
2017-08-11T02:42:57.904Z,7.50
2017-08-11T02:45:32.367Z,8.20
2017-08-11T02:48:06.519Z,7.50
2017-08-11T02:50:40.779Z,7.87
2017-08-11T02:53:14.840Z,7.97
2017-08-11T02:55:49.231Z,7.43
2017-08-11T02:58:23.371Z,8.20
2017-08-11T03:00:57.666Z,7.60
2017-08-11T03:03:31.754Z,8.23
2017-08-11T03:06:06.047Z,7.53
2017-08-11T03:08:40.239Z,7.53
2017-08-11T03:11:14.580Z,7.70
2017-08-11T03:13:48.760Z,7.40
2017-08-11T03:16:22.854Z,7.17
2017-08-11T03:18:57.128Z,7.00
2017-08-11T03:21:31.380Z,7.40
2017-08-11T03:24:05.634Z,6.53
2017-08-11T03:26:39.903Z,6.90
2017-08-11T03:29:14.077Z,7.40
2017-08-11T03:31:48.371Z,7.83
2017-08-11T03:34:22.633Z,6.03
2017-08-11T03:36:56.731Z,6.13
2017-08-11T03:39:31.048Z,6.37
2017-08-11T03:42:05.393Z,6.73
2017-08-11T03:44:39.579Z,5.90
2017-08-11T03:47:13.868Z,6.70
2017-08-11T03:49:48.175Z,6.27
2017-08-11T03:52:22.451Z,7.10
2017-08-11T03:54:56.660Z,6.33
2017-08-11T03:57:30.875Z,5.70
2017-08-11T04:00:05.135Z,6.23
2017-08-11T04:02:39.426Z,6.00
2017-08-11T04:05:13.753Z,6.03
2017-08-11T04:07:47.943Z,6.80
2017-08-11T04:10:22.339Z,6.70
2017-08-11T04:12:56.408Z,7.50
2017-08-11T04:15:30.607Z,7.80
2017-08-11T04:18:04.798Z,7.97
2017-08-11T04:20:39.092Z,7.50
2017-08-11T04:23:13.199Z,7.67
2017-08-11T04:25:47.385Z,7.40
2017-08-11T04:28:21.529Z,8.07
2017-08-11T04:30:56.028Z,8.80
2017-08-11T04:33:30.257Z,8.57
2017-08-11T04:36:04.663Z,8.20
2017-08-11T04:38:38.956Z,8.63
2017-08-11T04:41:13.080Z,7.93
2017-08-11T04:43:47.461Z,8.70
2017-08-11T04:46:21.893Z,8.93
2017-08-11T04:48:56.386Z,8.00
2017-08-11T04:51:30.627Z,8.47
2017-08-11T04:54:04.855Z,7.47
2017-08-11T04:56:39.002Z,7.90
2017-08-11T04:59:13.235Z,7.27
2017-08-11T05:01:47.505Z,7.47
2017-08-11T05:04:21.650Z,7.17
2017-08-11T05:06:55.882Z,7.27
2017-08-11T05:09:29.963Z,7.30
2017-08-11T05:12:04.158Z,7.73
2017-08-11T05:14:38.500Z,6.60
2017-08-11T05:17:12.833Z,6.60
2017-08-11T05:19:47.004Z,5.63
2017-08-11T05:22:21.148Z,6.17
2017-08-11T05:24:55.407Z,6.57
2017-08-11T05:27:29.601Z,6.80
2017-08-11T05:30:03.859Z,7.83
2017-08-11T05:32:38.156Z,7.70
2017-08-11T05:35:12.277Z,7.40
2017-08-11T05:37:46.448Z,6.40
2017-08-11T05:40:20.836Z,6.77
2017-08-11T05:42:54.948Z,7.10
2017-08-11T05:45:29.003Z,6.30
2017-08-11T05:48:03.247Z,7.30
2017-08-11T05:50:37.390Z,6.47
2017-08-11T05:53:11.437Z,5.67
2017-08-11T05:55:45.924Z,6.07
2017-08-11T05:58:20.148Z,5.97
2017-08-11T06:00:54.368Z,6.23
2017-08-11T06:03:28.477Z,5.37
2017-08-11T06:06:02.776Z,5.67
2017-08-11T06:08:37.033Z,4.47
2017-08-11T06:11:11.247Z,4.80
2017-08-11T06:13:45.471Z,5.60
2017-08-11T06:16:19.828Z,5.57
2017-08-11T06:18:54.042Z,5.70
2017-08-11T06:21:28.152Z,5.47
2017-08-11T06:24:02.544Z,6.97
2017-08-11T06:26:36.887Z,6.57
2017-08-11T06:29:11.023Z,6.20
2017-08-11T06:31:45.292Z,7.07
2017-08-11T06:34:19.680Z,7.03
2017-08-11T06:36:53.791Z,7.00
2017-08-11T06:39:27.899Z,6.63
2017-08-11T06:42:02.296Z,6.43
2017-08-11T06:44:36.543Z,6.20
2017-08-11T06:47:10.738Z,6.10
2017-08-11T06:49:44.919Z,6.33
2017-08-11T06:52:19.126Z,5.10
2017-08-11T06:54:53.379Z,5.70
2017-08-11T06:57:27.640Z,5.27
2017-08-11T07:00:01.997Z,5.37
2017-08-11T07:02:38.038Z,5.33
2017-08-11T07:05:12.303Z,5.03
2017-08-11T07:07:46.649Z,5.53
2017-08-11T07:10:20.867Z,5.07
2017-08-11T07:12:55.195Z,4.60
2017-08-11T07:15:29.374Z,5.40
2017-08-11T07:18:03.509Z,5.10
2017-08-11T07:20:37.755Z,4.90
2017-08-11T07:23:11.822Z,5.20
2017-08-11T07:25:46.126Z,4.67
2017-08-11T07:28:22.305Z,4.90
2017-08-11T07:30:56.444Z,5.20
2017-08-11T07:33:30.664Z,4.83
2017-08-11T07:36:04.936Z,4.97
2017-08-11T07:38:39.261Z,5.30
2017-08-11T07:41:13.438Z,4.97
2017-08-11T07:43:47.536Z,4.77
2017-08-11T07:46:21.715Z,5.53
2017-08-11T07:48:55.996Z,5.20
2017-08-11T07:51:30.308Z,4.60
2017-08-11T07:54:04.653Z,4.67
2017-08-11T07:56:38.928Z,4.80
2017-08-11T07:59:13.172Z,4.47
2017-08-11T08:01:47.419Z,4.77
2017-08-11T08:04:21.602Z,4.80
2017-08-11T08:06:55.785Z,4.60
2017-08-11T08:09:29.899Z,4.90
2017-08-11T08:12:04.032Z,4.77
2017-08-11T08:14:38.316Z,4.67
2017-08-11T08:17:12.548Z,4.80
2017-08-11T08:19:46.677Z,4.73
2017-08-11T08:22:20.768Z,4.60
2017-08-11T08:24:55.037Z,4.20
2017-08-11T08:27:29.442Z,4.97
2017-08-11T08:30:03.719Z,5.00
2017-08-11T08:32:38.014Z,4.30
2017-08-11T08:35:12.132Z,5.47
2017-08-11T08:37:46.413Z,4.53
2017-08-11T08:40:20.472Z,5.57
2017-08-11T08:42:54.724Z,5.60
2017-08-11T08:45:28.900Z,5.37
2017-08-11T08:48:03.082Z,5.40
2017-08-11T08:50:37.274Z,5.00
2017-08-11T08:53:11.405Z,5.07
2017-08-11T08:55:45.636Z,5.30
2017-08-11T08:58:19.928Z,4.83
2017-08-11T09:00:54.231Z,5.67
2017-08-11T09:03:28.531Z,5.20
2017-08-11T09:06:02.767Z,5.90
2017-08-11T09:08:37.074Z,5.60
2017-08-11T09:11:11.405Z,5.50
2017-08-11T09:13:45.527Z,6.33
2017-08-11T09:16:19.822Z,5.90
2017-08-11T09:18:54.027Z,7.17
2017-08-11T09:21:28.256Z,7.70
2017-08-11T09:24:02.556Z,7.40
2017-08-11T09:26:42.759Z,7.70
2017-08-11T09:29:23.060Z,7.63
2017-08-11T09:32:03.379Z,7.90
2017-08-11T09:34:43.660Z,7.70
2017-08-11T09:37:17.915Z,6.33
2017-08-11T09:39:52.183Z,6.03
2017-08-11T09:42:26.502Z,6.20
2017-08-11T09:45:01.008Z,6.13
2017-08-11T09:47:35.305Z,5.30
2017-08-11T09:50:09.443Z,6.30
2017-08-11T09:52:43.884Z,5.93
2017-08-11T09:55:18.225Z,5.70
2017-08-11T09:57:52.503Z,4.80
2017-08-11T10:00:27.404Z,6.03
2017-08-11T10:03:01.600Z,5.10
2017-08-11T10:05:36.037Z,5.83
2017-08-11T10:08:10.167Z,5.67
2017-08-11T10:10:44.427Z,5.00
2017-08-11T10:13:18.664Z,4.90
2017-08-11T10:15:52.913Z,5.00
2017-08-11T10:18:27.242Z,4.70
2017-08-11T10:21:01.596Z,4.73
2017-08-11T10:23:35.975Z,5.30
2017-08-11T10:26:10.324Z,6.30
2017-08-11T10:28:44.436Z,5.47
2017-08-11T10:31:18.847Z,6.20
2017-08-11T10:33:53.043Z,4.97
2017-08-11T10:36:27.196Z,5.50
2017-08-11T10:39:01.456Z,5.43
2017-08-11T10:41:35.561Z,5.20
2017-08-11T10:44:09.788Z,5.80
2017-08-11T10:46:44.141Z,5.20
2017-08-11T10:49:18.479Z,6.20
2017-08-11T10:51:52.740Z,5.60
2017-08-11T10:54:26.996Z,5.37
2017-08-11T10:57:01.244Z,5.00
2017-08-11T10:59:35.543Z,6.60
2017-08-11T11:02:10.034Z,6.00
2017-08-11T11:04:44.273Z,5.47
2017-08-11T11:07:18.363Z,5.90
2017-08-11T11:09:52.520Z,5.63
2017-08-11T11:12:26.772Z,6.03
2017-08-11T11:15:00.932Z,5.63
2017-08-11T11:17:35.083Z,6.37
2017-08-11T11:20:09.412Z,6.07
2017-08-11T11:22:43.657Z,6.30
2017-08-11T11:25:18.041Z,7.00
2017-08-11T11:27:52.359Z,6.93
2017-08-11T11:30:26.720Z,6.47
2017-08-11T11:33:00.995Z,6.67
2017-08-11T11:35:41.206Z,6.00
2017-08-11T11:38:15.321Z,6.07
2017-08-11T11:40:49.561Z,7.37
2017-08-11T11:43:23.741Z,7.00
2017-08-11T11:45:58.033Z,7.20
2017-08-11T11:48:32.385Z,6.40
2017-08-11T11:51:06.580Z,6.57
2017-08-11T11:53:40.909Z,7.33
2017-08-11T11:56:15.801Z,7.20
2017-08-11T11:58:50.154Z,7.03
2017-08-11T12:01:24.581Z,7.00
2017-08-11T12:09:47.445Z,5.93
2017-08-11T12:15:15.787Z,7.30
2017-08-11T12:17:50.075Z,6.50
2017-08-11T12:20:24.930Z,6.80
2017-08-11T12:25:53.566Z,6.27
2017-08-11T12:28:27.917Z,7.50
2017-08-11T12:31:02.082Z,6.70
2017-08-11T12:42:18.067Z,7.40
2017-08-11T12:44:52.332Z,6.67
2017-08-11T12:47:26.653Z,6.70
2017-08-11T12:50:00.972Z,7.87
2017-08-11T12:55:28.954Z,7.90
2017-08-11T12:58:03.042Z,7.10
2017-08-11T13:00:37.783Z,6.87
2017-08-11T13:03:12.040Z,6.90
2017-08-11T13:08:40.048Z,7.37
2017-08-11T13:11:14.370Z,7.23
2017-08-11T13:13:48.623Z,7.63
2017-08-11T13:16:23.169Z,7.10
2017-08-11T13:24:44.544Z,6.83
2017-08-11T13:27:18.745Z,7.00
2017-08-11T13:29:52.980Z,7.80
2017-08-11T13:35:21.388Z,7.30
2017-08-11T13:37:55.733Z,5.97
2017-08-11T13:40:30.174Z,7.77
2017-08-11T13:43:04.516Z,7.10
2017-08-11T13:45:39.643Z,7.10
2017-08-11T13:48:14.067Z,6.87
2017-08-11T13:50:48.388Z,7.40
2017-08-11T13:53:22.568Z,6.50
2017-08-11T13:55:56.905Z,7.60
2017-08-11T13:58:31.161Z,7.30
2017-08-11T14:01:05.468Z,6.97
2017-08-11T14:03:39.687Z,6.90
2017-08-11T14:06:13.867Z,6.23
2017-08-11T14:08:48.219Z,4.90
2017-08-11T14:11:22.723Z,4.80
2017-08-11T14:13:56.933Z,5.23
2017-08-11T14:16:31.107Z,4.30
2017-08-11T14:19:05.378Z,4.10
2017-08-11T14:21:39.721Z,4.30
2017-08-11T14:30:02.723Z,4.00
2017-08-11T14:32:37.035Z,4.43
2017-08-11T14:35:11.172Z,4.53
2017-08-11T14:37:45.403Z,4.30
2017-08-11T14:40:19.723Z,5.00
2017-08-11T14:42:54.139Z,4.37
2017-08-11T14:54:11.761Z,5.10
2017-08-11T14:56:46.036Z,4.40
2017-08-11T14:59:20.198Z,5.00
2017-08-11T15:01:54.451Z,5.13
2017-08-11T15:10:16.776Z,4.70
2017-08-11T15:12:50.997Z,4.97
2017-08-11T15:15:25.278Z,4.90
2017-08-11T15:17:59.555Z,5.67
2017-08-11T15:20:34.912Z,6.20
2017-08-11T15:23:09.921Z,4.97
2017-08-11T15:25:44.133Z,3.80
2017-08-11T15:28:18.415Z,3.87
2017-08-11T15:30:52.612Z,3.90
2017-08-11T15:42:08.856Z,4.63
2017-08-11T15:47:37.185Z,4.40
2017-08-11T15:50:11.431Z,4.10
2017-08-11T15:52:45.661Z,3.60
2017-08-11T15:55:19.744Z,3.73
2017-08-11T15:57:54.119Z,3.80
2017-08-11T16:00:28.593Z,3.97
2017-08-11T16:03:02.750Z,3.23
2017-08-11T16:05:36.874Z,3.30
2017-08-11T16:08:11.044Z,4.00
2017-08-11T16:19:27.288Z,3.70
2017-08-11T16:22:01.645Z,3.50
2017-08-11T16:24:35.769Z,3.90
2017-08-11T16:27:10.105Z,3.30
2017-08-11T16:29:44.383Z,3.63
2017-08-11T16:32:18.575Z,3.83
2017-08-11T16:43:35.718Z,3.00
2017-08-11T16:46:09.969Z,2.50
2017-08-11T16:48:44.201Z,3.27
2017-08-11T16:51:18.423Z,2.90
2017-08-11T16:53:52.622Z,2.70
2017-08-11T16:56:26.867Z,2.63
2017-08-11T16:59:01.268Z,2.90
2017-08-11T17:01:35.543Z,2.67
2017-08-11T17:09:59.248Z,2.63
2017-08-11T17:12:33.495Z,2.70
2017-08-11T17:18:01.759Z,3.00
2017-08-11T17:20:35.978Z,3.27
2017-08-11T17:23:10.331Z,2.57
2017-08-11T17:25:44.813Z,2.97
2017-08-11T17:28:19.126Z,3.03
2017-08-11T17:30:53.341Z,2.80
2017-08-11T17:36:22.098Z,2.43
2017-08-11T17:38:56.160Z,2.10
2017-08-11T17:41:30.484Z,2.47
2017-08-11T17:49:52.010Z,2.83
2017-08-11T17:52:26.191Z,2.80
2017-08-11T17:57:54.644Z,2.47
2017-08-11T18:03:23.654Z,2.70
2017-08-11T18:05:57.923Z,3.00
2017-08-11T18:08:32.321Z,2.10
2017-08-11T18:11:06.542Z,2.50
2017-08-11T18:13:40.945Z,3.40
2017-08-11T18:16:15.433Z,2.43
2017-08-11T18:18:49.818Z,3.20
2017-08-11T18:21:24.231Z,3.20
2017-08-11T18:23:58.588Z,2.37
2017-08-11T18:26:32.891Z,3.00
2017-08-11T18:29:07.198Z,2.17
2017-08-11T18:31:42.004Z,2.20
2017-08-11T18:34:16.143Z,2.10
2017-08-11T18:36:50.862Z,2.53
2017-08-11T18:39:25.090Z,2.53
2017-08-11T18:41:59.419Z,2.33
2017-08-11T18:44:34.104Z,2.10
2017-08-11T18:47:08.201Z,2.57
2017-08-11T18:49:42.488Z,2.20
2017-08-11T18:52:16.798Z,2.60
2017-08-11T18:54:51.200Z,2.50
2017-08-11T18:57:25.481Z,2.33
2017-08-11T18:59:59.780Z,1.87
2017-08-11T19:02:34.129Z,2.10
2017-08-11T19:05:08.579Z,2.30
2017-08-11T19:07:42.933Z,2.30
2017-08-11T19:10:17.153Z,2.43
2017-08-11T19:12:51.320Z,2.60
2017-08-11T19:15:25.611Z,2.23
2017-08-11T19:17:59.867Z,2.10
2017-08-11T19:20:34.332Z,2.50
2017-08-11T19:23:08.604Z,2.37
2017-08-11T19:25:42.845Z,2.63
2017-08-11T19:28:17.107Z,2.30
2017-08-11T19:36:39.053Z,2.20
2017-08-11T19:39:13.089Z,2.30
2017-08-11T19:41:47.274Z,2.43
2017-08-11T19:44:21.548Z,2.80
2017-08-11T19:49:49.299Z,2.23
2017-08-11T19:52:23.587Z,2.00
2017-08-11T20:00:45.691Z,2.37
2017-08-11T20:03:19.776Z,2.00
2017-08-11T20:05:54.013Z,2.10
2017-08-11T20:08:28.073Z,2.40
2017-08-11T20:11:02.355Z,2.17
2017-08-11T20:13:36.647Z,2.60
2017-08-11T20:16:10.907Z,2.00
2017-08-11T20:21:38.645Z,2.03
2017-08-11T20:24:12.908Z,1.90
2017-08-11T20:35:29.623Z,2.20
2017-08-11T20:38:03.911Z,2.30
2017-08-11T20:40:38.098Z,2.23
2017-08-11T20:43:12.400Z,2.10
2017-08-11T20:45:46.573Z,1.90
2017-08-11T20:54:10.039Z,2.00
2017-08-11T20:56:44.343Z,1.63
2017-08-11T20:59:18.567Z,2.00
2017-08-11T21:07:40.643Z,1.83
2017-08-11T21:10:14.894Z,1.83
2017-08-11T21:12:49.273Z,2.23
2017-08-11T21:15:23.320Z,1.57
2017-08-11T21:17:57.507Z,1.83
2017-08-11T21:20:31.558Z,1.87
2017-08-11T21:23:05.800Z,2.27
2017-08-11T21:25:40.027Z,1.63
2017-08-11T21:28:14.206Z,1.97
2017-08-11T21:36:38.554Z,2.33
2017-08-11T21:39:12.808Z,1.60
2017-08-11T21:41:47.956Z,2.50
2017-08-11T21:44:22.057Z,2.53
2017-08-11T21:46:56.276Z,1.70
2017-08-11T21:49:30.378Z,1.90
2017-08-11T21:57:57.225Z,1.70
2017-08-11T22:00:37.481Z,2.30
2017-08-11T22:03:12.701Z,1.70
2017-08-11T22:05:46.979Z,1.80
2017-08-11T22:08:21.055Z,1.53
2017-08-11T22:19:36.671Z,1.60
2017-08-11T22:22:10.883Z,1.90
2017-08-11T22:27:39.260Z,2.43
2017-08-11T22:30:13.588Z,2.30
2017-08-11T22:32:47.750Z,2.00
2017-08-11T22:35:21.828Z,2.00
2017-08-11T22:37:56.060Z,2.20
2017-08-11T22:40:30.114Z,1.97
2017-08-11T22:43:04.456Z,2.03
2017-08-11T22:45:38.753Z,1.70
2017-08-11T22:54:01.729Z,2.17
2017-08-11T22:56:35.902Z,1.80
2017-08-11T22:59:10.116Z,1.90
2017-08-11T23:01:44.389Z,2.00
2017-08-11T23:04:18.665Z,1.93
2017-08-11T23:06:52.736Z,1.80
2017-08-11T23:09:27.147Z,1.90
2017-08-11T23:12:01.468Z,1.83
2017-08-11T23:14:35.598Z,2.00
2017-08-11T23:17:09.812Z,1.90
2017-08-11T23:19:44.179Z,2.00
2017-08-11T23:22:18.412Z,1.70
2017-08-11T23:24:52.641Z,1.80
2017-08-11T23:27:27.038Z,2.00
2017-08-11T23:30:01.260Z,2.20
2017-08-11T23:32:35.296Z,2.00
2017-08-11T23:35:09.654Z,1.90
2017-08-11T23:37:43.847Z,2.00
2017-08-11T23:40:17.958Z,2.27
2017-08-11T23:42:52.121Z,2.40
2017-08-11T23:45:26.368Z,2.03
2017-08-11T23:48:00.757Z,2.47
2017-08-11T23:50:35.064Z,2.13
2017-08-11T23:53:09.389Z,2.47
2017-08-11T23:55:43.766Z,2.87
2017-08-11T23:58:18.171Z,2.50
